Метеостанция


АнтоновUKKM 181000Z 14002MPS 080V170 CAVOK 21/10 Q1023 R33/CLRD70 NOSIG
БориспольUKBB 181000Z 10002MPS 050V140 CAVOK 21/11 Q1023 R18L/CLRD// NOSIG
Гаврышовка (Винница)UKWW 181000Z 11004MPS CAVOK 21/09 Q1022 R13/0///65 NOSIG
ДнепропетровскUKDD 181000Z 01002MPS 320V040 CAVOK 23/10 Q1022 R08/090070 NOSIG
ЖуляныUKKK 181000Z 13002MPS 100V160 CAVOK 20/11 Q1023 R26/CLRD70 NOSIG
Запорожье(Мокрая)UKDE 181000Z 08004MPS 010V140 CAVOK 24/09 Q1022 R02R/CLRD70 NOSIG
Ивано-ФранковскUKLI 181000Z VRB01MPS CAVOK 18/10 Q1019 R28/090070 NOSIG
Кривой РогUKDR 181000Z 07004MPS 020V140 CAVOK 22/07 Q1022 R36/09//70 NOSIG
ЛьвовUKLL 181000Z 21002MPS 170V240 CAVOK 19/11 Q1019 R13/CLRD// NOSIG
НиколаевUKON 181000Z 10005MPS 050V150 CAVOK 22/06 Q1020 NOSIG
ОдессаUKOO 181000Z 07006MPS CAVOK 19/11 Q1020 R34/090060 NOSIG
РовноUKLR 181000Z 14003MPS 090V200 CAVOK 21/07 Q1020 R11/090070 NOSIG
УжгородUKLU 181000Z 00000MPS 9999 NSC 20/06 Q1019 R28/090070 NOSIG
ХарьковUKHH 181000Z 10003MPS 060V130 CAVOK 22/07 Q1024 R07/0///72 NOSIG
ЧерновцыUKLN 180700Z 10004MPS CAVOK 11/08 Q1021 R15/09//70 NOSIG
Скачать:
Скачать этот файл (Metar_шпаргалка.jpg)Расшифровка METAR[ ]4799 Кб
Вся информация, которая имеется в использовании на сайте и доступная для скачивания, получена исключительно из открытых источников информации сети Интернет, всякое совпадение с данными, имеющими ограничения в доступе, случайное и не является преднамеренным.